sensor_id;sensor_type;location;lat;lon;timestamp;P1;durP1;ratioP1;P2;durP2;ratioP2
15629;SDS011;7914;50.842;0.166;2023-05-10T00:02:06;8.23;;;2.83;;
15629;SDS011;7914;50.842;0.166;2023-05-10T00:04:32;6.15;;;2.33;;
15629;SDS011;7914;50.842;0.166;2023-05-10T00:06:57;9.02;;;3.42;;
15629;SDS011;7914;50.842;0.166;2023-05-10T00:09:23;6.20;;;2.10;;
15629;SDS011;7914;50.842;0.166;2023-05-10T00:11:49;6.32;;;1.88;;
15629;SDS011;7914;50.842;0.166;2023-05-10T00:14:15;3.83;;;1.60;;
15629;SDS011;7914;50.842;0.166;2023-05-10T00:16:40;5.78;;;1.40;;
15629;SDS011;7914;50.842;0.166;2023-05-10T00:19:06;4.25;;;1.38;;
15629;SDS011;7914;50.842;0.166;2023-05-10T00:21:32;3.78;;;1.30;;
15629;SDS011;7914;50.842;0.166;2023-05-10T00:23:58;4.57;;;1.50;;
15629;SDS011;7914;50.842;0.166;2023-05-10T00:26:25;5.20;;;1.75;;
15629;SDS011;7914;50.842;0.166;2023-05-10T00:28:50;4.85;;;1.67;;
15629;SDS011;7914;50.842;0.166;2023-05-10T00:31:16;4.00;;;1.05;;
15629;SDS011;7914;50.842;0.166;2023-05-10T00:33:42;3.67;;;1.23;;
15629;SDS011;7914;50.842;0.166;2023-05-10T00:36:07;6.30;;;1.83;;
15629;SDS011;7914;50.842;0.166;2023-05-10T00:38:33;4.85;;;1.20;;
15629;SDS011;7914;50.842;0.166;2023-05-10T00:40:59;3.88;;;1.17;;
15629;SDS011;7914;50.842;0.166;2023-05-10T00:43:25;5.65;;;1.10;;
15629;SDS011;7914;50.842;0.166;2023-05-10T00:45:50;4.28;;;1.23;;
15629;SDS011;7914;50.842;0.166;2023-05-10T00:48:17;4.65;;;1.77;;
15629;SDS011;7914;50.842;0.166;2023-05-10T00:50:43;8.25;;;1.30;;
15629;SDS011;7914;50.842;0.166;2023-05-10T00:53:09;5.70;;;1.50;;
15629;SDS011;7914;50.842;0.166;2023-05-10T00:55:35;5.55;;;1.20;;
15629;SDS011;7914;50.842;0.166;2023-05-10T00:58:02;5.25;;;1.30;;
15629;SDS011;7914;50.842;0.166;2023-05-10T01:00:28;4.80;;;1.10;;
15629;SDS011;7914;50.842;0.166;2023-05-10T01:02:54;2.97;;;1.15;;
15629;SDS011;7914;50.842;0.166;2023-05-10T01:05:20;2.42;;;0.85;;
15629;SDS011;7914;50.842;0.166;2023-05-10T01:07:46;5.20;;;1.00;;
15629;SDS011;7914;50.842;0.166;2023-05-10T01:10:13;7.43;;;1.25;;
15629;SDS011;7914;50.842;0.166;2023-05-10T01:12:39;4.47;;;1.10;;
15629;SDS011;7914;50.842;0.166;2023-05-10T01:15:07;5.18;;;2.28;;
15629;SDS011;7914;50.842;0.166;2023-05-10T01:17:36;4.40;;;1.25;;
15629;SDS011;7914;50.842;0.166;2023-05-10T01:20:04;3.60;;;1.20;;
15629;SDS011;7914;50.842;0.166;2023-05-10T01:22:43;3.85;;;1.23;;
15629;SDS011;7914;50.842;0.166;2023-05-10T01:31:18;5.32;;;1.17;;
15629;SDS011;7914;50.842;0.166;2023-05-10T01:34:07;4.95;;;1.30;;
15629;SDS011;7914;50.842;0.166;2023-05-10T01:47:21;5.82;;;1.30;;
15629;SDS011;7914;50.842;0.166;2023-05-10T01:50:06;5.43;;;1.48;;
15629;SDS011;7914;50.842;0.166;2023-05-10T01:52:41;4.10;;;1.20;;
15629;SDS011;7914;50.842;0.166;2023-05-10T01:55:09;3.53;;;1.40;;
15629;SDS011;7914;50.842;0.166;2023-05-10T01:57:39;3.25;;;1.08;;
15629;SDS011;7914;50.842;0.166;2023-05-10T02:00:07;5.38;;;1.23;;
15629;SDS011;7914;50.842;0.166;2023-05-10T02:02:39;4.03;;;1.27;;
15629;SDS011;7914;50.842;0.166;2023-05-10T02:05:07;5.43;;;1.20;;
15629;SDS011;7914;50.842;0.166;2023-05-10T02:07:35;5.43;;;1.52;;
15629;SDS011;7914;50.842;0.166;2023-05-10T02:10:02;5.93;;;1.70;;
15629;SDS011;7914;50.842;0.166;2023-05-10T02:12:33;4.85;;;1.42;;
15629;SDS011;7914;50.842;0.166;2023-05-10T02:15:02;3.58;;;1.15;;
15629;SDS011;7914;50.842;0.166;2023-05-10T02:17:30;4.63;;;1.45;;
15629;SDS011;7914;50.842;0.166;2023-05-10T02:19:57;5.60;;;1.30;;
15629;SDS011;7914;50.842;0.166;2023-05-10T02:22:25;4.30;;;1.40;;
15629;SDS011;7914;50.842;0.166;2023-05-10T02:24:53;5.85;;;1.42;;
15629;SDS011;7914;50.842;0.166;2023-05-10T02:27:22;4.88;;;1.25;;
15629;SDS011;7914;50.842;0.166;2023-05-10T02:29:50;4.72;;;1.75;;
15629;SDS011;7914;50.842;0.166;2023-05-10T02:32:17;3.75;;;1.40;;
15629;SDS011;7914;50.842;0.166;2023-05-10T02:34:44;4.47;;;1.63;;
15629;SDS011;7914;50.842;0.166;2023-05-10T02:37:12;4.60;;;1.55;;
15629;SDS011;7914;50.842;0.166;2023-05-10T02:39:43;4.65;;;1.63;;
15629;SDS011;7914;50.842;0.166;2023-05-10T02:42:15;6.13;;;2.58;;
15629;SDS011;7914;50.842;0.166;2023-05-10T02:44:45;7.78;;;2.72;;
15629;SDS011;7914;50.842;0.166;2023-05-10T02:47:13;6.00;;;1.80;;
15629;SDS011;7914;50.842;0.166;2023-05-10T02:49:39;7.72;;;2.20;;
15629;SDS011;7914;50.842;0.166;2023-05-10T02:52:05;7.40;;;2.78;;
15629;SDS011;7914;50.842;0.166;2023-05-10T02:54:34;7.78;;;2.35;;
15629;SDS011;7914;50.842;0.166;2023-05-10T02:57:06;8.48;;;2.55;;
15629;SDS011;7914;50.842;0.166;2023-05-10T02:59:33;8.00;;;2.20;;
15629;SDS011;7914;50.842;0.166;2023-05-10T03:01:59;7.32;;;2.35;;
15629;SDS011;7914;50.842;0.166;2023-05-10T03:04:27;6.90;;;2.60;;
15629;SDS011;7914;50.842;0.166;2023-05-10T03:06:52;7.28;;;2.97;;
15629;SDS011;7914;50.842;0.166;2023-05-10T03:09:18;8.60;;;2.88;;
15629;SDS011;7914;50.842;0.166;2023-05-10T03:14:54;9.68;;;3.15;;
15629;SDS011;7914;50.842;0.166;2023-05-10T03:17:46;8.55;;;2.58;;
15629;SDS011;7914;50.842;0.166;2023-05-10T03:20:24;10.48;;;3.30;;
15629;SDS011;7914;50.842;0.166;2023-05-10T03:23:02;12.90;;;3.22;;
15629;SDS011;7914;50.842;0.166;2023-05-10T03:25:32;8.82;;;3.58;;
15629;SDS011;7914;50.842;0.166;2023-05-10T03:28:00;10.27;;;3.42;;
15629;SDS011;7914;50.842;0.166;2023-05-10T03:30:29;9.68;;;3.67;;
15629;SDS011;7914;50.842;0.166;2023-05-10T03:32:56;12.77;;;3.58;;
15629;SDS011;7914;50.842;0.166;2023-05-10T03:35:22;10.95;;;3.70;;
15629;SDS011;7914;50.842;0.166;2023-05-10T03:37:49;9.38;;;3.53;;
15629;SDS011;7914;50.842;0.166;2023-05-10T03:40:14;9.70;;;3.38;;
15629;SDS011;7914;50.842;0.166;2023-05-10T03:42:41;9.43;;;3.67;;
15629;SDS011;7914;50.842;0.166;2023-05-10T03:45:06;12.90;;;4.18;;
15629;SDS011;7914;50.842;0.166;2023-05-10T03:47:33;9.95;;;3.53;;
15629;SDS011;7914;50.842;0.166;2023-05-10T03:49:58;11.68;;;3.65;;
15629;SDS011;7914;50.842;0.166;2023-05-10T03:52:24;8.75;;;2.92;;
15629;SDS011;7914;50.842;0.166;2023-05-10T03:54:50;10.60;;;3.58;;
15629;SDS011;7914;50.842;0.166;2023-05-10T03:57:16;9.20;;;3.75;;
15629;SDS011;7914;50.842;0.166;2023-05-10T03:59:41;9.48;;;3.40;;
15629;SDS011;7914;50.842;0.166;2023-05-10T04:02:07;11.40;;;4.07;;
15629;SDS011;7914;50.842;0.166;2023-05-10T04:04:32;10.55;;;3.60;;
15629;SDS011;7914;50.842;0.166;2023-05-10T04:06:58;11.35;;;3.72;;
15629;SDS011;7914;50.842;0.166;2023-05-10T04:09:24;10.15;;;3.75;;
15629;SDS011;7914;50.842;0.166;2023-05-10T04:11:50;11.68;;;4.70;;
15629;SDS011;7914;50.842;0.166;2023-05-10T04:14:16;11.93;;;4.50;;
15629;SDS011;7914;50.842;0.166;2023-05-10T04:16:41;13.05;;;4.40;;
15629;SDS011;7914;50.842;0.166;2023-05-10T04:19:07;14.65;;;5.15;;
15629;SDS011;7914;50.842;0.166;2023-05-10T04:21:33;11.90;;;4.57;;
15629;SDS011;7914;50.842;0.166;2023-05-10T04:23:58;12.65;;;5.10;;
15629;SDS011;7914;50.842;0.166;2023-05-10T04:26:24;15.52;;;4.80;;
15629;SDS011;7914;50.842;0.166;2023-05-10T04:28:50;13.77;;;5.28;;
15629;SDS011;7914;50.842;0.166;2023-05-10T04:31:16;13.00;;;4.78;;
15629;SDS011;7914;50.842;0.166;2023-05-10T04:33:42;12.32;;;6.25;;
15629;SDS011;7914;50.842;0.166;2023-05-10T04:36:07;12.73;;;6.30;;
15629;SDS011;7914;50.842;0.166;2023-05-10T04:38:33;12.48;;;4.53;;
15629;SDS011;7914;50.842;0.166;2023-05-10T04:41:09;11.35;;;5.20;;
15629;SDS011;7914;50.842;0.166;2023-05-10T04:43:36;12.43;;;4.35;;
15629;SDS011;7914;50.842;0.166;2023-05-10T04:46:02;11.63;;;4.50;;
15629;SDS011;7914;50.842;0.166;2023-05-10T04:48:28;14.18;;;4.68;;
15629;SDS011;7914;50.842;0.166;2023-05-10T04:50:54;14.10;;;4.85;;
15629;SDS011;7914;50.842;0.166;2023-05-10T04:53:19;12.48;;;4.53;;
15629;SDS011;7914;50.842;0.166;2023-05-10T04:55:45;13.95;;;4.40;;
15629;SDS011;7914;50.842;0.166;2023-05-10T04:58:11;15.65;;;4.93;;
15629;SDS011;7914;50.842;0.166;2023-05-10T05:00:37;11.15;;;4.70;;
15629;SDS011;7914;50.842;0.166;2023-05-10T05:03:03;15.07;;;4.85;;
15629;SDS011;7914;50.842;0.166;2023-05-10T05:05:28;14.98;;;4.57;;
15629;SDS011;7914;50.842;0.166;2023-05-10T05:07:54;13.55;;;4.93;;
15629;SDS011;7914;50.842;0.166;2023-05-10T05:10:20;15.20;;;4.63;;
15629;SDS011;7914;50.842;0.166;2023-05-10T05:12:46;12.63;;;4.70;;
15629;SDS011;7914;50.842;0.166;2023-05-10T05:15:11;13.02;;;4.50;;
15629;SDS011;7914;50.842;0.166;2023-05-10T05:17:37;13.10;;;5.20;;
15629;SDS011;7914;50.842;0.166;2023-05-10T05:20:03;11.93;;;4.72;;
15629;SDS011;7914;50.842;0.166;2023-05-10T05:22:29;18.77;;;5.22;;
15629;SDS011;7914;50.842;0.166;2023-05-10T05:24:55;14.38;;;4.55;;
15629;SDS011;7914;50.842;0.166;2023-05-10T05:27:21;13.15;;;4.78;;
15629;SDS011;7914;50.842;0.166;2023-05-10T05:29:51;16.02;;;5.45;;
15629;SDS011;7914;50.842;0.166;2023-05-10T05:32:18;13.38;;;4.90;;
15629;SDS011;7914;50.842;0.166;2023-05-10T05:34:44;15.40;;;5.55;;
15629;SDS011;7914;50.842;0.166;2023-05-10T05:37:17;13.50;;;5.10;;
15629;SDS011;7914;50.842;0.166;2023-05-10T05:39:44;13.30;;;4.95;;
15629;SDS011;7914;50.842;0.166;2023-05-10T05:42:10;14.23;;;4.85;;
15629;SDS011;7914;50.842;0.166;2023-05-10T05:44:37;13.80;;;5.15;;
15629;SDS011;7914;50.842;0.166;2023-05-10T05:47:03;14.00;;;5.35;;
15629;SDS011;7914;50.842;0.166;2023-05-10T05:49:29;13.15;;;4.85;;
15629;SDS011;7914;50.842;0.166;2023-05-10T05:51:59;13.05;;;4.85;;
15629;SDS011;7914;50.842;0.166;2023-05-10T05:54:28;10.85;;;4.18;;
15629;SDS011;7914;50.842;0.166;2023-05-10T05:56:55;16.50;;;5.60;;
15629;SDS011;7914;50.842;0.166;2023-05-10T05:59:24;13.10;;;4.38;;
15629;SDS011;7914;50.842;0.166;2023-05-10T06:01:50;13.80;;;4.28;;
15629;SDS011;7914;50.842;0.166;2023-05-10T06:04:16;13.77;;;4.55;;
15629;SDS011;7914;50.842;0.166;2023-05-10T06:06:42;10.32;;;4.38;;
15629;SDS011;7914;50.842;0.166;2023-05-10T06:09:08;9.40;;;4.05;;
15629;SDS011;7914;50.842;0.166;2023-05-10T06:11:34;9.77;;;3.88;;
15629;SDS011;7914;50.842;0.166;2023-05-10T06:14:00;10.32;;;3.72;;
15629;SDS011;7914;50.842;0.166;2023-05-10T06:16:28;10.13;;;3.75;;
15629;SDS011;7914;50.842;0.166;2023-05-10T06:18:54;9.10;;;3.67;;
15629;SDS011;7914;50.842;0.166;2023-05-10T06:21:20;19.00;;;4.15;;
15629;SDS011;7914;50.842;0.166;2023-05-10T06:23:46;13.73;;;3.90;;
15629;SDS011;7914;50.842;0.166;2023-05-10T06:26:12;10.80;;;3.70;;
15629;SDS011;7914;50.842;0.166;2023-05-10T06:28:38;11.13;;;3.10;;
15629;SDS011;7914;50.842;0.166;2023-05-10T06:31:04;13.88;;;4.18;;
15629;SDS011;7914;50.842;0.166;2023-05-10T06:33:31;12.05;;;3.38;;
15629;SDS011;7914;50.842;0.166;2023-05-10T06:35:57;10.57;;;3.42;;
15629;SDS011;7914;50.842;0.166;2023-05-10T06:38:22;11.30;;;3.63;;
15629;SDS011;7914;50.842;0.166;2023-05-10T06:40:48;10.63;;;3.42;;
15629;SDS011;7914;50.842;0.166;2023-05-10T06:43:14;9.45;;;3.13;;
15629;SDS011;7914;50.842;0.166;2023-05-10T06:45:40;10.25;;;3.55;;
15629;SDS011;7914;50.842;0.166;2023-05-10T06:48:06;10.57;;;3.33;;
15629;SDS011;7914;50.842;0.166;2023-05-10T06:50:32;9.15;;;3.55;;
15629;SDS011;7914;50.842;0.166;2023-05-10T06:52:58;12.80;;;3.15;;
15629;SDS011;7914;50.842;0.166;2023-05-10T06:55:24;12.93;;;3.95;;
15629;SDS011;7914;50.842;0.166;2023-05-10T06:57:51;11.85;;;3.70;;
15629;SDS011;7914;50.842;0.166;2023-05-10T07:00:17;12.27;;;4.10;;
15629;SDS011;7914;50.842;0.166;2023-05-10T07:02:43;14.48;;;3.78;;
15629;SDS011;7914;50.842;0.166;2023-05-10T07:05:09;11.02;;;4.50;;
15629;SDS011;7914;50.842;0.166;2023-05-10T07:07:35;10.35;;;3.72;;
15629;SDS011;7914;50.842;0.166;2023-05-10T07:10:01;11.80;;;3.40;;
15629;SDS011;7914;50.842;0.166;2023-05-10T07:12:27;11.15;;;4.05;;
15629;SDS011;7914;50.842;0.166;2023-05-10T07:14:53;10.38;;;3.17;;
15629;SDS011;7914;50.842;0.166;2023-05-10T07:17:19;11.93;;;3.70;;
15629;SDS011;7914;50.842;0.166;2023-05-10T07:19:44;9.52;;;3.13;;
15629;SDS011;7914;50.842;0.166;2023-05-10T07:22:10;9.40;;;3.70;;
15629;SDS011;7914;50.842;0.166;2023-05-10T07:24:36;11.68;;;3.15;;
15629;SDS011;7914;50.842;0.166;2023-05-10T07:27:02;11.65;;;3.80;;
15629;SDS011;7914;50.842;0.166;2023-05-10T07:29:28;9.48;;;3.63;;
15629;SDS011;7914;50.842;0.166;2023-05-10T07:31:53;9.98;;;2.92;;
15629;SDS011;7914;50.842;0.166;2023-05-10T07:34:19;7.82;;;2.85;;
15629;SDS011;7914;50.842;0.166;2023-05-10T07:36:45;9.50;;;2.78;;
15629;SDS011;7914;50.842;0.166;2023-05-10T07:39:11;8.23;;;2.58;;
15629;SDS011;7914;50.842;0.166;2023-05-10T07:41:37;9.35;;;2.95;;
15629;SDS011;7914;50.842;0.166;2023-05-10T07:44:03;10.63;;;2.92;;
15629;SDS011;7914;50.842;0.166;2023-05-10T07:46:30;8.20;;;2.95;;
15629;SDS011;7914;50.842;0.166;2023-05-10T07:48:55;10.90;;;3.42;;
15629;SDS011;7914;50.842;0.166;2023-05-10T07:51:21;12.32;;;3.00;;
15629;SDS011;7914;50.842;0.166;2023-05-10T07:53:47;9.07;;;3.00;;
15629;SDS011;7914;50.842;0.166;2023-05-10T07:56:20;8.27;;;2.50;;
15629;SDS011;7914;50.842;0.166;2023-05-10T07:58:52;8.77;;;3.03;;
15629;SDS011;7914;50.842;0.166;2023-05-10T08:01:18;11.07;;;3.55;;
15629;SDS011;7914;50.842;0.166;2023-05-10T08:03:43;10.40;;;2.45;;
15629;SDS011;7914;50.842;0.166;2023-05-10T08:06:09;8.60;;;2.70;;
15629;SDS011;7914;50.842;0.166;2023-05-10T08:08:35;8.88;;;3.03;;
15629;SDS011;7914;50.842;0.166;2023-05-10T08:11:01;6.78;;;2.28;;
15629;SDS011;7914;50.842;0.166;2023-05-10T08:13:26;11.63;;;3.03;;
15629;SDS011;7914;50.842;0.166;2023-05-10T08:15:52;10.43;;;2.78;;
15629;SDS011;7914;50.842;0.166;2023-05-10T08:18:18;9.25;;;2.70;;
15629;SDS011;7914;50.842;0.166;2023-05-10T08:20:44;12.95;;;3.45;;
15629;SDS011;7914;50.842;0.166;2023-05-10T08:23:11;9.60;;;2.60;;
15629;SDS011;7914;50.842;0.166;2023-05-10T08:25:38;11.95;;;2.65;;
15629;SDS011;7914;50.842;0.166;2023-05-10T08:28:03;7.65;;;2.45;;
15629;SDS011;7914;50.842;0.166;2023-05-10T08:30:29;10.95;;;2.28;;
15629;SDS011;7914;50.842;0.166;2023-05-10T08:32:55;9.95;;;2.03;;
15629;SDS011;7914;50.842;0.166;2023-05-10T08:35:21;8.32;;;2.17;;
15629;SDS011;7914;50.842;0.166;2023-05-10T08:37:46;10.38;;;2.45;;
15629;SDS011;7914;50.842;0.166;2023-05-10T08:40:12;11.10;;;3.25;;
15629;SDS011;7914;50.842;0.166;2023-05-10T08:42:40;8.45;;;2.63;;
15629;SDS011;7914;50.842;0.166;2023-05-10T08:45:12;13.38;;;4.15;;
15629;SDS011;7914;50.842;0.166;2023-05-10T08:47:39;13.32;;;4.43;;
15629;SDS011;7914;50.842;0.166;2023-05-10T08:50:05;13.65;;;5.05;;
15629;SDS011;7914;50.842;0.166;2023-05-10T08:52:32;9.50;;;3.88;;
15629;SDS011;7914;50.842;0.166;2023-05-10T08:55:03;13.88;;;3.97;;
15629;SDS011;7914;50.842;0.166;2023-05-10T08:57:29;10.05;;;3.63;;
15629;SDS011;7914;50.842;0.166;2023-05-10T08:59:55;12.88;;;3.90;;
15629;SDS011;7914;50.842;0.166;2023-05-10T09:02:21;12.95;;;3.40;;
15629;SDS011;7914;50.842;0.166;2023-05-10T09:04:48;14.95;;;4.00;;
15629;SDS011;7914;50.842;0.166;2023-05-10T09:07:14;9.40;;;3.05;;
15629;SDS011;7914;50.842;0.166;2023-05-10T09:09:39;12.15;;;3.33;;
15629;SDS011;7914;50.842;0.166;2023-05-10T09:12:05;10.88;;;2.97;;
15629;SDS011;7914;50.842;0.166;2023-05-10T09:14:33;9.38;;;2.88;;
15629;SDS011;7914;50.842;0.166;2023-05-10T09:17:00;8.93;;;3.38;;
15629;SDS011;7914;50.842;0.166;2023-05-10T09:19:26;10.52;;;3.85;;
15629;SDS011;7914;50.842;0.166;2023-05-10T09:21:53;9.02;;;3.20;;
15629;SDS011;7914;50.842;0.166;2023-05-10T09:24:18;13.13;;;3.97;;
15629;SDS011;7914;50.842;0.166;2023-05-10T09:26:47;12.45;;;3.45;;
15629;SDS011;7914;50.842;0.166;2023-05-10T09:29:13;11.40;;;4.22;;
15629;SDS011;7914;50.842;0.166;2023-05-10T09:31:47;16.17;;;4.47;;
15629;SDS011;7914;50.842;0.166;2023-05-10T09:34:17;11.52;;;3.85;;
15629;SDS011;7914;50.842;0.166;2023-05-10T09:36:54;10.57;;;3.85;;
15629;SDS011;7914;50.842;0.166;2023-05-10T09:39:29;12.50;;;3.90;;
15629;SDS011;7914;50.842;0.166;2023-05-10T09:41:57;11.85;;;3.67;;
15629;SDS011;7914;50.842;0.166;2023-05-10T09:44:25;8.60;;;2.83;;
15629;SDS011;7914;50.842;0.166;2023-05-10T09:46:51;10.30;;;3.45;;
15629;SDS011;7914;50.842;0.166;2023-05-10T09:49:18;11.25;;;3.38;;
15629;SDS011;7914;50.842;0.166;2023-05-10T09:51:45;12.55;;;3.35;;
15629;SDS011;7914;50.842;0.166;2023-05-10T09:54:15;10.18;;;3.13;;
15629;SDS011;7914;50.842;0.166;2023-05-10T09:56:41;8.38;;;2.75;;
15629;SDS011;7914;50.842;0.166;2023-05-10T09:59:09;12.77;;;3.20;;
15629;SDS011;7914;50.842;0.166;2023-05-10T10:01:36;11.95;;;2.80;;
15629;SDS011;7914;50.842;0.166;2023-05-10T10:04:05;12.18;;;4.18;;
15629;SDS011;7914;50.842;0.166;2023-05-10T10:06:38;10.65;;;2.60;;
15629;SDS011;7914;50.842;0.166;2023-05-10T10:09:05;7.75;;;2.33;;
15629;SDS011;7914;50.842;0.166;2023-05-10T10:11:31;10.65;;;3.03;;
15629;SDS011;7914;50.842;0.166;2023-05-10T10:13:57;12.52;;;3.00;;
15629;SDS011;7914;50.842;0.166;2023-05-10T10:16:24;9.77;;;2.90;;
15629;SDS011;7914;50.842;0.166;2023-05-10T10:18:50;13.40;;;3.35;;
15629;SDS011;7914;50.842;0.166;2023-05-10T10:21:15;11.18;;;2.95;;
15629;SDS011;7914;50.842;0.166;2023-05-10T10:23:42;12.85;;;2.80;;
15629;SDS011;7914;50.842;0.166;2023-05-10T10:26:08;10.80;;;2.85;;
15629;SDS011;7914;50.842;0.166;2023-05-10T10:31:31;8.43;;;3.13;;
15629;SDS011;7914;50.842;0.166;2023-05-10T10:34:07;9.02;;;2.60;;
15629;SDS011;7914;50.842;0.166;2023-05-10T10:36:47;9.65;;;2.80;;
15629;SDS011;7914;50.842;0.166;2023-05-10T10:39:13;7.10;;;2.38;;
15629;SDS011;7914;50.842;0.166;2023-05-10T10:41:41;7.47;;;2.22;;
15629;SDS011;7914;50.842;0.166;2023-05-10T10:44:34;8.13;;;2.22;;
15629;SDS011;7914;50.842;0.166;2023-05-10T10:52:35;8.50;;;3.00;;
15629;SDS011;7914;50.842;0.166;2023-05-10T10:55:09;10.85;;;3.20;;
15629;SDS011;7914;50.842;0.166;2023-05-10T11:00:29;12.18;;;3.03;;
15629;SDS011;7914;50.842;0.166;2023-05-10T11:03:05;9.85;;;3.35;;
15629;SDS011;7914;50.842;0.166;2023-05-10T11:08:29;9.52;;;3.28;;
15629;SDS011;7914;50.842;0.166;2023-05-10T11:13:34;13.13;;;3.70;;
15629;SDS011;7914;50.842;0.166;2023-05-10T11:16:14;9.85;;;3.28;;
15629;SDS011;7914;50.842;0.166;2023-05-10T11:24:38;11.45;;;3.15;;
15629;SDS011;7914;50.842;0.166;2023-05-10T11:27:04;11.35;;;3.47;;
15629;SDS011;7914;50.842;0.166;2023-05-10T11:29:30;16.20;;;4.97;;
15629;SDS011;7914;50.842;0.166;2023-05-10T11:31:57;15.27;;;4.35;;
15629;SDS011;7914;50.842;0.166;2023-05-10T11:34:28;15.18;;;4.78;;
15629;SDS011;7914;50.842;0.166;2023-05-10T11:37:00;16.02;;;4.50;;
15629;SDS011;7914;50.842;0.166;2023-05-10T11:39:27;12.55;;;3.60;;
15629;SDS011;7914;50.842;0.166;2023-05-10T11:41:57;13.70;;;4.43;;
15629;SDS011;7914;50.842;0.166;2023-05-10T11:44:23;14.50;;;3.85;;
15629;SDS011;7914;50.842;0.166;2023-05-10T11:46:54;15.13;;;3.35;;
15629;SDS011;7914;50.842;0.166;2023-05-10T11:49:22;16.75;;;3.72;;
15629;SDS011;7914;50.842;0.166;2023-05-10T11:51:51;11.63;;;3.22;;
15629;SDS011;7914;50.842;0.166;2023-05-10T11:54:16;12.05;;;3.28;;
15629;SDS011;7914;50.842;0.166;2023-05-10T11:56:42;12.30;;;3.58;;
15629;SDS011;7914;50.842;0.166;2023-05-10T11:59:08;13.27;;;2.88;;
15629;SDS011;7914;50.842;0.166;2023-05-10T12:01:33;12.57;;;2.88;;
15629;SDS011;7914;50.842;0.166;2023-05-10T12:04:00;14.45;;;3.13;;
15629;SDS011;7914;50.842;0.166;2023-05-10T12:06:27;17.40;;;3.55;;
15629;SDS011;7914;50.842;0.166;2023-05-10T12:08:56;10.43;;;2.90;;
15629;SDS011;7914;50.842;0.166;2023-05-10T12:11:25;14.05;;;2.47;;
15629;SDS011;7914;50.842;0.166;2023-05-10T12:13:52;14.55;;;3.03;;
15629;SDS011;7914;50.842;0.166;2023-05-10T12:16:20;10.55;;;2.70;;
15629;SDS011;7914;50.842;0.166;2023-05-10T12:18:55;9.68;;;2.20;;
15629;SDS011;7914;50.842;0.166;2023-05-10T12:21:22;10.07;;;2.88;;
15629;SDS011;7914;50.842;0.166;2023-05-10T12:23:52;13.38;;;2.92;;
15629;SDS011;7914;50.842;0.166;2023-05-10T12:26:23;9.60;;;2.03;;
15629;SDS011;7914;50.842;0.166;2023-05-10T12:28:49;11.45;;;2.47;;
15629;SDS011;7914;50.842;0.166;2023-05-10T12:31:15;17.60;;;3.03;;
15629;SDS011;7914;50.842;0.166;2023-05-10T12:33:42;10.95;;;2.38;;
15629;SDS011;7914;50.842;0.166;2023-05-10T12:36:09;12.40;;;2.70;;
15629;SDS011;7914;50.842;0.166;2023-05-10T12:38:36;11.40;;;2.63;;
15629;SDS011;7914;50.842;0.166;2023-05-10T12:41:07;11.20;;;2.80;;
15629;SDS011;7914;50.842;0.166;2023-05-10T12:43:34;7.93;;;2.70;;
15629;SDS011;7914;50.842;0.166;2023-05-10T12:46:07;14.43;;;2.97;;
15629;SDS011;7914;50.842;0.166;2023-05-10T12:48:34;12.98;;;2.58;;
15629;SDS011;7914;50.842;0.166;2023-05-10T12:51:01;12.80;;;2.83;;
15629;SDS011;7914;50.842;0.166;2023-05-10T12:53:27;10.80;;;2.10;;
15629;SDS011;7914;50.842;0.166;2023-05-10T12:55:53;10.77;;;2.33;;
15629;SDS011;7914;50.842;0.166;2023-05-10T12:58:18;12.23;;;2.45;;
15629;SDS011;7914;50.842;0.166;2023-05-10T13:00:45;10.68;;;2.40;;
15629;SDS011;7914;50.842;0.166;2023-05-10T13:03:11;8.52;;;2.50;;
15629;SDS011;7914;50.842;0.166;2023-05-10T13:05:36;13.07;;;2.17;;
15629;SDS011;7914;50.842;0.166;2023-05-10T13:08:03;14.57;;;2.67;;
15629;SDS011;7914;50.842;0.166;2023-05-10T13:10:31;9.35;;;2.05;;
15629;SDS011;7914;50.842;0.166;2023-05-10T13:12:57;11.27;;;2.30;;
15629;SDS011;7914;50.842;0.166;2023-05-10T13:15:24;12.27;;;2.53;;
15629;SDS011;7914;50.842;0.166;2023-05-10T13:17:50;10.80;;;2.80;;
15629;SDS011;7914;50.842;0.166;2023-05-10T13:20:16;12.05;;;1.90;;
15629;SDS011;7914;50.842;0.166;2023-05-10T13:22:44;11.38;;;2.40;;
15629;SDS011;7914;50.842;0.166;2023-05-10T13:25:10;16.05;;;3.08;;
15629;SDS011;7914;50.842;0.166;2023-05-10T13:27:39;12.65;;;2.08;;
15629;SDS011;7914;50.842;0.166;2023-05-10T13:30:06;13.57;;;2.72;;
15629;SDS011;7914;50.842;0.166;2023-05-10T13:32:36;13.95;;;2.55;;
15629;SDS011;7914;50.842;0.166;2023-05-10T13:35:02;13.20;;;2.55;;
15629;SDS011;7914;50.842;0.166;2023-05-10T13:37:29;9.18;;;2.15;;
15629;SDS011;7914;50.842;0.166;2023-05-10T13:39:55;11.73;;;2.50;;
15629;SDS011;7914;50.842;0.166;2023-05-10T13:42:21;8.35;;;2.10;;
15629;SDS011;7914;50.842;0.166;2023-05-10T13:44:48;14.30;;;2.30;;
15629;SDS011;7914;50.842;0.166;2023-05-10T13:47:14;10.98;;;2.20;;
15629;SDS011;7914;50.842;0.166;2023-05-10T13:49:40;8.13;;;1.73;;
15629;SDS011;7914;50.842;0.166;2023-05-10T13:52:06;10.55;;;2.30;;
15629;SDS011;7914;50.842;0.166;2023-05-10T13:54:33;8.50;;;2.03;;
15629;SDS011;7914;50.842;0.166;2023-05-10T13:56:59;6.60;;;1.75;;
15629;SDS011;7914;50.842;0.166;2023-05-10T13:59:25;9.35;;;1.95;;
15629;SDS011;7914;50.842;0.166;2023-05-10T14:01:51;13.30;;;2.38;;
15629;SDS011;7914;50.842;0.166;2023-05-10T14:04:16;21.48;;;2.67;;
15629;SDS011;7914;50.842;0.166;2023-05-10T14:06:42;8.90;;;1.98;;
15629;SDS011;7914;50.842;0.166;2023-05-10T14:09:08;7.88;;;2.55;;
15629;SDS011;7914;50.842;0.166;2023-05-10T14:11:33;14.45;;;2.92;;
15629;SDS011;7914;50.842;0.166;2023-05-10T14:13:59;8.23;;;1.83;;
15629;SDS011;7914;50.842;0.166;2023-05-10T14:16:25;8.15;;;1.80;;
15629;SDS011;7914;50.842;0.166;2023-05-10T14:18:51;10.55;;;2.17;;
15629;SDS011;7914;50.842;0.166;2023-05-10T14:21:16;10.50;;;2.53;;
15629;SDS011;7914;50.842;0.166;2023-05-10T14:23:42;12.75;;;2.67;;
15629;SDS011;7914;50.842;0.166;2023-05-10T14:26:08;10.27;;;1.88;;
15629;SDS011;7914;50.842;0.166;2023-05-10T14:28:33;10.15;;;1.77;;
15629;SDS011;7914;50.842;0.166;2023-05-10T14:30:59;14.10;;;1.92;;
15629;SDS011;7914;50.842;0.166;2023-05-10T14:33:25;13.20;;;2.15;;
15629;SDS011;7914;50.842;0.166;2023-05-10T14:35:51;7.22;;;1.80;;
15629;SDS011;7914;50.842;0.166;2023-05-10T14:38:17;12.10;;;2.10;;
15629;SDS011;7914;50.842;0.166;2023-05-10T14:40:42;6.85;;;1.50;;
15629;SDS011;7914;50.842;0.166;2023-05-10T14:43:08;13.20;;;1.92;;
15629;SDS011;7914;50.842;0.166;2023-05-10T14:45:34;8.20;;;1.75;;
15629;SDS011;7914;50.842;0.166;2023-05-10T14:48:00;9.20;;;1.90;;
15629;SDS011;7914;50.842;0.166;2023-05-10T14:50:29;7.85;;;2.45;;
15629;SDS011;7914;50.842;0.166;2023-05-10T14:52:55;11.40;;;1.60;;
15629;SDS011;7914;50.842;0.166;2023-05-10T14:55:21;9.80;;;1.92;;
15629;SDS011;7914;50.842;0.166;2023-05-10T14:57:47;13.65;;;2.78;;
15629;SDS011;7914;50.842;0.166;2023-05-10T15:00:14;10.98;;;2.42;;
15629;SDS011;7914;50.842;0.166;2023-05-10T15:02:40;13.35;;;2.70;;
15629;SDS011;7914;50.842;0.166;2023-05-10T15:05:07;7.63;;;1.98;;
15629;SDS011;7914;50.842;0.166;2023-05-10T15:07:32;9.45;;;2.30;;
15629;SDS011;7914;50.842;0.166;2023-05-10T15:09:58;8.95;;;1.77;;
15629;SDS011;7914;50.842;0.166;2023-05-10T15:12:24;15.80;;;2.20;;
15629;SDS011;7914;50.842;0.166;2023-05-10T15:14:49;9.18;;;1.95;;
15629;SDS011;7914;50.842;0.166;2023-05-10T15:17:15;9.48;;;2.10;;
15629;SDS011;7914;50.842;0.166;2023-05-10T15:19:41;13.05;;;2.15;;
15629;SDS011;7914;50.842;0.166;2023-05-10T15:22:07;7.32;;;2.10;;
15629;SDS011;7914;50.842;0.166;2023-05-10T15:24:33;9.52;;;1.80;;
15629;SDS011;7914;50.842;0.166;2023-05-10T15:26:59;9.23;;;1.92;;
15629;SDS011;7914;50.842;0.166;2023-05-10T15:29:25;10.40;;;2.20;;
15629;SDS011;7914;50.842;0.166;2023-05-10T15:31:51;9.23;;;1.90;;
15629;SDS011;7914;50.842;0.166;2023-05-10T15:34:17;10.48;;;2.13;;
15629;SDS011;7914;50.842;0.166;2023-05-10T15:36:44;9.23;;;2.63;;